Time;durP1;ratioP1;P1;durP2;ratioP2;P2;SDS_P1;SDS_P2;PMS_P1;PMS_P2;Temp;Humidity;BMP_temperature;BMP_pressure;BME280_temperature;BME280_humidity;BME280_pressure;Samples;Min_cycle;Max_cycle;Signal;HPM_P1;HPM_P2
2023/04/02 00:01:00;;;;;;;;;;;15.30;74.40;;;;;;4978929;28;94742;-68
2023/04/02 00:03:44;;;;;;;;;;;15.30;74.50;;;;;;4993377;28;94642;-70
2023/04/02 00:06:29;;;;;;;;;;;15.30;74.40;;;;;;5001515;28;95459;-63
2023/04/02 00:08:57;;;;;;;;;;;15.20;73.90;;;;;;4993828;28;94974;-59
2023/04/02 00:11:32;;;;;;;;;;;15.20;74.00;;;;;;5001877;28;94343;-69
2023/04/02 00:13:59;;;;;;;;;;;15.10;74.50;;;;;;4995736;28;93530;-70
2023/04/02 00:16:26;;;;;;;;;;;15.20;74.40;;;;;;4998701;28;94488;-69
2023/04/02 00:18:54;;;;;;;;;;;15.20;74.70;;;;;;4995082;28;94008;-62
2023/04/02 00:21:25;;;;;;;;;;;15.20;73.90;;;;;;4994511;28;95804;-69
2023/04/02 00:23:52;;;;;;;;;;;15.20;74.30;;;;;;4991625;28;95620;-66
2023/04/02 00:26:22;;;;;;;;;;;15.20;74.30;;;;;;4990627;28;94751;-70
2023/04/02 00:28:49;;;;;;;;;;;15.20;74.20;;;;;;4991658;28;94138;-68
2023/04/02 00:31:15;;;;;;;;;;;15.10;74.30;;;;;;4990263;28;95206;-70
2023/04/02 00:33:42;;;;;;;;;;;15.10;74.30;;;;;;4987515;28;94383;-68
2023/04/02 00:36:08;;;;;;;;;;;15.10;74.10;;;;;;4993016;28;94508;-70
2023/04/02 00:38:34;;;;;;;;;;;15.10;74.10;;;;;;4989934;28;98965;-68
2023/04/02 00:41:03;;;;;;;;;;;15.10;74.30;;;;;;4993310;28;94963;-64
2023/04/02 00:43:34;;;;;;;;;;;15.10;74.40;;;;;;4995198;28;93829;-70
2023/04/02 00:46:02;;;;;;;;;;;15.10;74.70;;;;;;4991968;28;95790;-69
2023/04/02 00:48:30;;;;;;;;;;;15.10;74.30;;;;;;5001543;28;94830;-67
2023/04/02 00:50:59;;;;;;;;;;;15.10;74.10;;;;;;4994541;28;97330;-66
2023/04/02 00:53:26;;;;;;;;;;;15.00;74.50;;;;;;4991280;28;94845;-70
2023/04/02 00:55:52;;;;;;;;;;;15.10;74.30;;;;;;4988038;28;94182;-66
2023/04/02 00:58:26;;;;;;;;;;;15.10;74.80;;;;;;4992813;28;94182;-66
2023/04/02 01:00:51;;;;;;;;;;;15.10;74.70;;;;;;4991014;28;94635;-62
2023/04/02 01:03:18;;;;;;;;;;;15.10;74.80;;;;;;5000658;28;93598;-68
2023/04/02 01:05:54;;;;;;;;;;;15.10;74.00;;;;;;4992927;28;94671;-69
2023/04/02 01:08:26;;;;;;;;;;;15.10;74.00;;;;;;4993954;28;95317;-70
2023/04/02 01:10:54;;;;;;;;;;;15.10;73.80;;;;;;4984215;28;95880;-63
2023/04/02 01:13:22;;;;;;;;;;;15.00;74.70;;;;;;4993882;28;94730;-70
2023/04/02 01:15:51;;;;;;;;;;;15.10;74.60;;;;;;4991835;28;100196;-53
2023/04/02 01:18:30;;;;;;;;;;;15.00;74.20;;;;;;4994292;28;94621;-48
2023/04/02 01:21:27;;;;;;;;;;;15.00;74.40;;;;;;4996526;28;94871;-51
2023/04/02 01:23:59;;;;;;;;;;;15.00;74.50;;;;;;4958954;28;94996;-52
2023/04/02 01:26:51;;;;;;;;;;;15.00;74.70;;;;;;4994582;28;95206;-53
2023/04/02 01:29:22;;;;;;;;;;;15.00;74.50;;;;;;4985921;28;95242;-50
2023/04/02 01:31:48;;;;;;;;;;;14.90;74.50;;;;;;4990126;28;95436;-49
2023/04/02 01:34:15;;;;;;;;;;;14.80;73.80;;;;;;4995925;28;95492;-52
2023/04/02 01:36:41;;;;;;;;;;;14.80;74.30;;;;;;4995436;28;95485;-52
2023/04/02 01:39:09;;;;;;;;;;;14.90;74.60;;;;;;4990361;28;95502;-53
2023/04/02 01:41:55;;;;;;;;;;;14.90;74.60;;;;;;4984909;28;95171;-48
2023/04/02 01:44:33;;;;;;;;;;;15.00;74.40;;;;;;4987459;28;94862;-51
2023/04/02 01:47:02;;;;;;;;;;;14.90;74.50;;;;;;4993903;28;94562;-53
2023/04/02 01:49:28;;;;;;;;;;;14.90;74.20;;;;;;4992319;28;95841;-50
2023/04/02 01:51:55;;;;;;;;;;;15.00;74.80;;;;;;4993864;28;95369;-48
2023/04/02 01:54:21;;;;;;;;;;;15.00;74.10;;;;;;4992745;28;93776;-51
2023/04/02 01:56:47;;;;;;;;;;;14.90;74.30;;;;;;4987378;28;95465;-53
2023/04/02 01:59:15;;;;;;;;;;;14.90;74.40;;;;;;4995785;28;95809;-54
2023/04/02 02:01:40;;;;;;;;;;;14.90;74.10;;;;;;4991633;28;95622;-52
2023/04/02 02:04:06;;;;;;;;;;;14.90;74.50;;;;;;4990875;28;94894;-53
2023/04/02 02:06:31;;;;;;;;;;;14.90;74.30;;;;;;4999102;28;95499;-51
2023/04/02 02:09:02;;;;;;;;;;;14.90;74.60;;;;;;4992171;28;94713;-52
2023/04/02 02:11:29;;;;;;;;;;;14.90;73.80;;;;;;4991200;28;94813;-55
2023/04/02 02:13:58;;;;;;;;;;;14.90;74.50;;;;;;4996661;28;94744;-50
2023/04/02 02:16:28;;;;;;;;;;;14.90;74.00;;;;;;4988112;28;95140;-50
2023/04/02 02:19:01;;;;;;;;;;;14.90;74.50;;;;;;4992157;28;93828;-52
2023/04/02 02:21:35;;;;;;;;;;;14.90;74.40;;;;;;4993810;28;94630;-49
2023/04/02 02:24:01;;;;;;;;;;;14.90;74.20;;;;;;4993212;28;95296;-51
2023/04/02 02:26:27;;;;;;;;;;;14.90;74.50;;;;;;4988178;28;96330;-49
2023/04/02 02:28:54;;;;;;;;;;;14.90;74.20;;;;;;4990685;28;95076;-49
2023/04/02 02:31:21;;;;;;;;;;;14.80;74.30;;;;;;5000632;28;95729;-50
2023/04/02 02:33:51;;;;;;;;;;;14.80;74.10;;;;;;4993212;28;94712;-49
2023/04/02 02:36:26;;;;;;;;;;;14.90;74.10;;;;;;4996942;28;94582;-55
2023/04/02 02:39:02;;;;;;;;;;;14.80;73.90;;;;;;4996973;28;94407;-48
2023/04/02 02:41:46;;;;;;;;;;;14.80;74.10;;;;;;5001601;28;95289;-51
2023/04/02 02:44:19;;;;;;;;;;;14.80;74.80;;;;;;4994769;28;93696;-50
2023/04/02 02:46:48;;;;;;;;;;;14.90;74.60;;;;;;4994840;28;94276;-49
2023/04/02 02:49:16;;;;;;;;;;;14.80;74.70;;;;;;4997473;28;95163;-50
2023/04/02 02:51:48;;;;;;;;;;;14.80;74.40;;;;;;4994763;28;96271;-50
2023/04/02 02:54:14;;;;;;;;;;;14.80;74.70;;;;;;5000004;28;95177;-49
2023/04/02 02:56:42;;;;;;;;;;;14.80;75.30;;;;;;4993585;28;95179;-52
2023/04/02 02:59:10;;;;;;;;;;;14.70;74.90;;;;;;4995464;28;95453;-50
2023/04/02 03:01:36;;;;;;;;;;;14.80;75.30;;;;;;5001055;28;94764;-51
2023/04/02 03:04:01;;;;;;;;;;;14.80;75.10;;;;;;4996492;28;94914;-51
2023/04/02 03:06:27;;;;;;;;;;;14.80;75.20;;;;;;4995957;28;95094;-49
2023/04/02 03:09:00;;;;;;;;;;;14.90;75.30;;;;;;4994580;28;94581;-51
2023/04/02 03:11:34;;;;;;;;;;;14.80;75.20;;;;;;5006165;28;94355;-50
2023/04/02 03:14:12;;;;;;;;;;;14.80;75.20;;;;;;4994033;28;95763;-51
2023/04/02 03:16:39;;;;;;;;;;;14.70;75.00;;;;;;4996941;28;95739;-68
2023/04/02 03:19:14;;;;;;;;;;;14.70;75.30;;;;;;4995587;28;94582;-66
2023/04/02 03:21:42;;;;;;;;;;;14.70;75.90;;;;;;4997057;28;94741;-69
2023/04/02 03:24:17;;;;;;;;;;;14.60;75.50;;;;;;4996862;28;94191;-63
2023/04/02 03:26:45;;;;;;;;;;;14.60;75.60;;;;;;4996767;28;94895;-65
2023/04/02 03:29:15;;;;;;;;;;;14.60;75.30;;;;;;5001617;28;94480;-68
2023/04/02 03:31:43;;;;;;;;;;;14.60;75.80;;;;;;4997965;28;96065;-64
2023/04/02 03:34:16;;;;;;;;;;;14.70;75.50;;;;;;4995110;28;95021;-64
2023/04/02 03:36:56;;;;;;;;;;;14.60;75.70;;;;;;4995490;28;95146;-65
2023/04/02 03:39:27;;;;;;;;;;;14.60;75.80;;;;;;4997092;28;94512;-67
2023/04/02 03:41:59;;;;;;;;;;;14.60;75.80;;;;;;4994549;28;95386;-68
2023/04/02 03:44:28;;;;;;;;;;;14.60;75.40;;;;;;4995455;28;94222;-68
2023/04/02 03:46:56;;;;;;;;;;;14.70;75.80;;;;;;4992732;28;95061;-60
2023/04/02 03:49:28;;;;;;;;;;;14.60;75.30;;;;;;4994233;28;94497;-67
2023/04/02 03:52:00;;;;;;;;;;;14.60;75.90;;;;;;4989098;28;94256;-67
2023/04/02 03:54:26;;;;;;;;;;;14.60;75.60;;;;;;4986532;28;93708;-66
2023/04/02 03:56:52;;;;;;;;;;;14.50;75.60;;;;;;4996692;28;95680;-66
2023/04/02 03:59:25;;;;;;;;;;;14.60;76.20;;;;;;4994785;28;95063;-69
2023/04/02 04:01:57;;;;;;;;;;;14.60;75.90;;;;;;4995611;28;94565;-64
2023/04/02 04:04:25;;;;;;;;;;;14.60;75.50;;;;;;4998635;28;94248;-60
2023/04/02 04:06:51;;;;;;;;;;;14.50;75.90;;;;;;4992394;28;95784;-68
2023/04/02 04:09:25;;;;;;;;;;;14.60;76.00;;;;;;4997679;28;95142;-68
2023/04/02 04:11:52;;;;;;;;;;;14.50;76.50;;;;;;4988611;28;94362;-69
2023/04/02 04:14:19;;;;;;;;;;;14.50;76.00;;;;;;4999224;28;95110;-67
2023/04/02 04:16:52;;;;;;;;;;;14.50;75.50;;;;;;4998061;28;94014;-68
2023/04/02 04:19:23;;;;;;;;;;;14.50;75.90;;;;;;4996219;28;94719;-67
2023/04/02 04:21:52;;;;;;;;;;;14.50;75.50;;;;;;4998140;28;94454;-66
2023/04/02 04:24:21;;;;;;;;;;;14.40;76.10;;;;;;4996466;28;93749;-67
2023/04/02 04:27:02;;;;;;;;;;;14.50;76.30;;;;;;4994053;28;94765;-66
2023/04/02 04:29:36;;;;;;;;;;;14.60;75.60;;;;;;4990904;28;94092;-66
2023/04/02 04:32:16;;;;;;;;;;;14.50;76.10;;;;;;4997516;28;95379;-68
2023/04/02 04:34:50;;;;;;;;;;;14.50;75.30;;;;;;4995185;28;94331;-67
2023/04/02 04:37:28;;;;;;;;;;;14.50;76.20;;;;;;4999268;28;94654;-64
2023/04/02 04:40:16;;;;;;;;;;;14.50;75.90;;;;;;4999700;28;95126;-68
2023/04/02 04:42:42;;;;;;;;;;;14.60;76.20;;;;;;5001708;28;94576;-65
2023/04/02 04:45:26;;;;;;;;;;;14.60;75.80;;;;;;4998360;28;94419;-64
2023/04/02 04:47:58;;;;;;;;;;;14.50;76.20;;;;;;4987621;28;96875;-66
2023/04/02 04:50:40;;;;;;;;;;;14.50;76.30;;;;;;4974677;28;94205;-64
2023/04/02 04:53:06;;;;;;;;;;;14.50;76.40;;;;;;4995712;28;94583;-66
2023/04/02 04:55:58;;;;;;;;;;;14.50;76.50;;;;;;4992891;28;93934;-63
2023/04/02 04:58:43;;;;;;;;;;;14.50;76.80;;;;;;4988508;28;95889;-65
2023/04/02 05:01:17;;;;;;;;;;;14.50;76.70;;;;;;5002129;28;94883;-64
2023/04/02 05:03:58;;;;;;;;;;;14.50;76.50;;;;;;5001526;28;94246;-62
2023/04/02 05:06:43;;;;;;;;;;;14.50;76.60;;;;;;4996643;28;94321;-67
2023/04/02 05:09:27;;;;;;;;;;;14.50;76.20;;;;;;4997765;28;95530;-63
2023/04/02 05:12:12;;;;;;;;;;;14.40;76.50;;;;;;4995384;28;94303;-67
2023/04/02 05:14:41;;;;;;;;;;;14.40;76.90;;;;;;4998610;28;95051;-62
2023/04/02 05:17:10;;;;;;;;;;;14.40;76.30;;;;;;5026089;22;93866;-75
2023/04/02 05:19:46;;;;;;;;;;;14.40;76.90;;;;;;4988532;28;94164;-77
2023/04/02 05:22:29;;;;;;;;;;;14.40;77.00;;;;;;4994760;28;94931;-76
2023/04/02 05:24:57;;;;;;;;;;;14.40;77.00;;;;;;4987631;28;96515;-76
2023/04/02 05:27:38;;;;;;;;;;;14.40;76.90;;;;;;4990626;28;94853;-74
2023/04/02 05:30:08;;;;;;;;;;;14.40;76.30;;;;;;4992197;28;95093;-76
2023/04/02 05:32:36;;;;;;;;;;;14.40;77.10;;;;;;4981439;28;98696;-77
2023/04/02 05:35:05;;;;;;;;;;;14.40;76.40;;;;;;4993411;28;93907;-77
2023/04/02 05:37:31;;;;;;;;;;;14.30;76.30;;;;;;4999025;28;94493;-79
2023/04/02 05:39:58;;;;;;;;;;;14.30;76.40;;;;;;4980715;28;96267;-73
2023/04/02 05:42:26;;;;;;;;;;;14.30;76.90;;;;;;5001662;28;93392;-75
2023/04/02 05:45:05;;;;;;;;;;;14.40;77.30;;;;;;4996012;28;94483;-79
2023/04/02 05:47:32;;;;;;;;;;;14.40;77.00;;;;;;4991539;28;95123;-77
2023/04/02 05:50:04;;;;;;;;;;;14.40;76.80;;;;;;4965351;28;97706;-76
2023/04/02 05:52:33;;;;;;;;;;;14.40;76.90;;;;;;4996479;28;94970;-76
2023/04/02 05:55:11;;;;;;;;;;;14.30;76.80;;;;;;4992685;28;94595;-77
2023/04/02 05:57:40;;;;;;;;;;;14.30;76.80;;;;;;5002478;28;94412;-72
2023/04/02 06:00:12;;;;;;;;;;;14.30;77.80;;;;;;4991839;28;94062;-76
2023/04/02 06:02:37;;;;;;;;;;;14.30;76.60;;;;;;4989907;28;94371;-74
2023/04/02 06:05:12;;;;;;;;;;;14.30;77.20;;;;;;4980947;28;94685;-75
2023/04/02 06:07:44;;;;;;;;;;;14.30;77.10;;;;;;4977319;28;93292;-74
2023/04/02 06:10:24;;;;;;;;;;;14.30;77.30;;;;;;4974407;28;98528;-72
2023/04/02 06:12:53;;;;;;;;;;;14.30;77.00;;;;;;5003458;28;94418;-76
2023/04/02 06:15:20;;;;;;;;;;;14.30;77.30;;;;;;4997998;28;95639;-76
2023/04/02 06:17:47;;;;;;;;;;;14.30;77.20;;;;;;4992155;28;94326;-78
2023/04/02 06:20:17;;;;;;;;;;;14.30;77.50;;;;;;4967856;28;96872;-75
2023/04/02 06:22:43;;;;;;;;;;;14.30;77.10;;;;;;4992865;28;94803;-74
2023/04/02 06:25:18;;;;;;;;;;;14.30;77.40;;;;;;4979548;28;94729;-73
2023/04/02 06:27:44;;;;;;;;;;;14.30;76.80;;;;;;4983145;28;95151;-75
2023/04/02 06:30:15;;;;;;;;;;;14.30;77.50;;;;;;4991016;28;95155;-76
2023/04/02 06:32:41;;;;;;;;;;;14.30;77.50;;;;;;4975309;28;96654;-73
2023/04/02 06:35:11;;;;;;;;;;;14.30;77.40;;;;;;4999582;28;94735;-73
2023/04/02 06:37:38;;;;;;;;;;;14.30;77.30;;;;;;4989683;28;96127;-74
2023/04/02 06:40:13;;;;;;;;;;;14.30;77.60;;;;;;4999363;28;96146;-75
2023/04/02 06:42:40;;;;;;;;;;;14.30;77.30;;;;;;4993401;28;95075;-76
2023/04/02 06:45:12;;;;;;;;;;;14.30;77.80;;;;;;4988081;28;94458;-74
2023/04/02 06:47:41;;;;;;;;;;;14.30;76.90;;;;;;4985735;28;94917;-74
2023/04/02 06:50:11;;;;;;;;;;;14.30;78.00;;;;;;4993942;28;99464;-76
2023/04/02 06:52:44;;;;;;;;;;;14.30;77.40;;;;;;4991269;28;97354;-73
2023/04/02 06:55:25;;;;;;;;;;;14.30;79.10;;;;;;4980271;28;95253;-77
2023/04/02 06:57:50;;;;;;;;;;;14.30;78.00;;;;;;4998819;28;94171;-81
2023/04/02 07:00:23;;;;;;;;;;;14.30;78.40;;;;;;4993089;28;99362;-78
2023/04/02 07:02:49;;;;;;;;;;;14.30;78.30;;;;;;4985886;28;95112;-77
2023/04/02 07:05:15;;;;;;;;;;;14.40;78.60;;;;;;4974958;28;96443;-78
2023/04/02 07:07:40;;;;;;;;;;;14.30;77.90;;;;;;4988455;28;95263;-74
2023/04/02 07:10:08;;;;;;;;;;;14.40;78.30;;;;;;4994411;28;96376;-73
2023/04/02 07:12:33;;;;;;;;;;;14.30;78.50;;;;;;4997600;28;94447;-74
2023/04/02 07:14:59;;;;;;;;;;;14.20;79.40;;;;;;4991550;28;101213;-77
2023/04/02 07:17:24;;;;;;;;;;;14.30;78.40;;;;;;4999154;28;94491;-73
2023/04/02 07:19:50;;;;;;;;;;;14.20;77.60;;;;;;5002344;28;95413;-76
2023/04/02 07:22:16;;;;;;;;;;;14.20;78.50;;;;;;4999985;28;93867;-75
2023/04/02 07:24:41;;;;;;;;;;;14.20;77.90;;;;;;4986546;28;99338;-74
2023/04/02 07:27:09;;;;;;;;;;;14.40;78.10;;;;;;5000402;28;95106;-78
2023/04/02 07:29:34;;;;;;;;;;;14.50;77.00;;;;;;4977913;28;95275;-77
2023/04/02 07:32:00;;;;;;;;;;;14.60;76.80;;;;;;4984220;28;94294;-78
2023/04/02 07:34:25;;;;;;;;;;;14.60;76.30;;;;;;4981842;28;99887;-75
2023/04/02 07:36:51;;;;;;;;;;;14.60;76.20;;;;;;5003504;28;94111;-75
2023/04/02 07:39:17;;;;;;;;;;;14.60;76.00;;;;;;5003135;28;94668;-74
2023/04/02 07:41:53;;;;;;;;;;;14.60;76.60;;;;;;4996609;28;94509;-76
2023/04/02 07:44:18;;;;;;;;;;;14.70;75.90;;;;;;4999888;28;93959;-79
2023/04/02 07:46:44;;;;;;;;;;;14.70;75.80;;;;;;4995696;28;93239;-76
2023/04/02 07:49:09;;;;;;;;;;;14.60;75.60;;;;;;4992322;28;94931;-74
2023/04/02 07:51:36;;;;;;;;;;;14.60;75.60;;;;;;4978512;28;94351;-77
2023/04/02 07:54:02;;;;;;;;;;;14.60;75.40;;;;;;4984402;28;95473;-74
2023/04/02 07:56:27;;;;;;;;;;;14.60;75.60;;;;;;4998444;28;94356;-78
2023/04/02 07:58:53;;;;;;;;;;;14.70;75.20;;;;;;4996456;28;95123;-76
2023/04/02 08:01:23;;;;;;;;;;;14.70;75.30;;;;;;4985670;28;96529;-76
2023/04/02 08:03:49;;;;;;;;;;;14.70;75.20;;;;;;5001360;28;94169;-76
2023/04/02 08:06:15;;;;;;;;;;;14.70;75.40;;;;;;5013089;28;94617;-75
2023/04/02 08:08:40;;;;;;;;;;;14.60;74.90;;;;;;4995832;28;95439;-75
2023/04/02 08:11:06;;;;;;;;;;;14.70;75.70;;;;;;4984140;28;93977;-74
2023/04/02 08:13:32;;;;;;;;;;;14.90;76.20;;;;;;4999761;28;93742;-77
2023/04/02 08:16:01;;;;;;;;;;;15.10;77.10;;;;;;5003589;28;94257;-75
2023/04/02 08:18:27;;;;;;;;;;;15.10;76.20;;;;;;4982723;28;95867;-77
2023/04/02 08:20:52;;;;;;;;;;;15.20;76.30;;;;;;4999664;28;94643;-76
2023/04/02 08:23:18;;;;;;;;;;;15.20;76.60;;;;;;4976066;28;94926;-78
2023/04/02 08:25:44;;;;;;;;;;;15.30;76.50;;;;;;4997687;28;95043;-77
2023/04/02 08:28:10;;;;;;;;;;;15.30;76.70;;;;;;4976813;28;96973;-76
2023/04/02 08:30:36;;;;;;;;;;;15.30;76.50;;;;;;4993832;28;94736;-75
2023/04/02 08:35:26;;;;;;;;;;;15.30;76.50;;;;;;4970228;22;96302;-62
2023/04/02 08:37:52;;;;;;;;;;;15.10;77.00;;;;;;4960979;28;96054;-63
2023/04/02 08:40:26;;;;;;;;;;;15.00;76.90;;;;;;4978607;28;95800;-61
2023/04/02 08:45:35;;;;;;;;;;;14.90;76.60;;;;;;4962243;22;95619;-75
2023/04/02 08:48:02;;;;;;;;;;;14.90;76.60;;;;;;4982984;28;95959;-73
2023/04/02 08:50:31;;;;;;;;;;;14.80;76.70;;;;;;4983189;28;94773;-76
2023/04/02 08:52:57;;;;;;;;;;;14.80;76.70;;;;;;4980113;28;94524;-73
2023/04/02 08:55:31;;;;;;;;;;;14.80;76.70;;;;;;4985459;28;101514;-75
2023/04/02 08:58:04;;;;;;;;;;;14.80;77.30;;;;;;4977051;28;94627;-74
2023/04/02 09:00:40;;;;;;;;;;;14.80;75.90;;;;;;4984726;28;94422;-77
2023/04/02 09:03:20;;;;;;;;;;;14.70;76.20;;;;;;4994314;28;99677;-74
2023/04/02 09:05:47;;;;;;;;;;;14.70;76.20;;;;;;4977783;28;95083;-73
2023/04/02 09:08:31;;;;;;;;;;;14.70;76.30;;;;;;4992196;28;96929;-76
2023/04/02 09:11:08;;;;;;;;;;;14.70;75.80;;;;;;4984807;28;95724;-72
2023/04/02 09:13:36;;;;;;;;;;;14.60;76.00;;;;;;4983061;28;94619;-75
2023/04/02 09:16:13;;;;;;;;;;;14.60;76.10;;;;;;4968852;28;99838;-78
2023/04/02 09:18:39;;;;;;;;;;;14.60;75.90;;;;;;4979101;28;96143;-73
2023/04/02 09:21:16;;;;;;;;;;;14.60;75.80;;;;;;4992934;28;94823;-73
2023/04/02 09:23:41;;;;;;;;;;;14.60;75.80;;;;;;4989178;28;99599;-76
2023/04/02 09:26:19;;;;;;;;;;;14.60;76.00;;;;;;4993881;28;93919;-74
2023/04/02 09:28:44;;;;;;;;;;;14.60;75.60;;;;;;4992892;28;95026;-76
2023/04/02 09:31:25;;;;;;;;;;;14.50;75.90;;;;;;4970076;28;95323;-74
2023/04/02 09:33:53;;;;;;;;;;;14.50;76.10;;;;;;4993964;28;95610;-73
2023/04/02 09:36:33;;;;;;;;;;;14.50;75.80;;;;;;4974955;28;94732;-76
2023/04/02 09:39:00;;;;;;;;;;;14.50;75.90;;;;;;4998125;28;94702;-76
2023/04/02 09:41:28;;;;;;;;;;;14.50;75.90;;;;;;4998253;28;96617;-71
2023/04/02 09:44:14;;;;;;;;;;;14.50;75.90;;;;;;4999880;28;94575;-74
2023/04/02 09:47:02;;;;;;;;;;;14.50;75.90;;;;;;4987514;28;94708;-74
2023/04/02 09:49:38;;;;;;;;;;;14.50;75.90;;;;;;4996346;28;95466;-75
2023/04/02 09:52:10;;;;;;;;;;;14.50;75.30;;;;;;5006544;28;94348;-77
2023/04/02 09:54:40;;;;;;;;;;;14.60;75.40;;;;;;5000156;28;94233;-76
2023/04/02 09:57:15;;;;;;;;;;;14.50;75.60;;;;;;5002410;28;95027;-75
2023/04/02 09:59:41;;;;;;;;;;;14.60;74.80;;;;;;4982857;28;95486;-75
2023/04/02 10:02:23;;;;;;;;;;;14.60;74.60;;;;;;4991059;28;94534;-74
2023/04/02 10:04:49;;;;;;;;;;;14.60;74.50;;;;;;4986086;28;94512;-78
2023/04/02 10:07:34;;;;;;;;;;;14.60;74.60;;;;;;4994976;28;95044;-75
2023/04/02 10:10:02;;;;;;;;;;;14.60;74.90;;;;;;4992509;28;95641;-75
2023/04/02 10:12:34;;;;;;;;;;;14.60;74.90;;;;;;4980976;28;94424;-74
2023/04/02 10:15:02;;;;;;;;;;;14.60;74.80;;;;;;4996724;28;94768;-74
2023/04/02 10:17:29;;;;;;;;;;;14.60;74.70;;;;;;4990910;28;94521;-75
2023/04/02 10:19:57;;;;;;;;;;;14.60;75.20;;;;;;4997959;28;99928;-75
2023/04/02 10:22:23;;;;;;;;;;;14.80;75.20;;;;;;4987404;28;94944;-77
2023/04/02 10:24:49;;;;;;;;;;;14.90;75.50;;;;;;4993272;28;100234;-78
2023/04/02 10:27:40;;;;;;;;;;;15.10;75.60;;;;;;4992581;28;95166;-77
2023/04/02 10:30:12;;;;;;;;;;;15.10;75.40;;;;;;5005588;28;94564;-75
2023/04/02 10:32:38;;;;;;;;;;;15.10;74.90;;;;;;5010944;28;93830;-77
2023/04/02 10:35:03;;;;;;;;;;;15.20;75.30;;;;;;4986032;28;93960;-73
2023/04/02 10:37:31;;;;;;;;;;;15.30;75.00;;;;;;5006971;28;95614;-76
2023/04/02 10:40:00;;;;;;;;;;;15.40;75.50;;;;;;5006221;28;94696;-77
2023/04/02 10:42:49;;;;;;;;;;;15.40;75.00;;;;;;5004610;28;94725;-77
2023/04/02 10:45:20;;;;;;;;;;;15.40;75.10;;;;;;4993979;28;94813;-75
2023/04/02 10:47:50;;;;;;;;;;;15.50;75.20;;;;;;5003702;28;94347;-76
2023/04/02 10:50:25;;;;;;;;;;;15.50;75.20;;;;;;5001871;28;95534;-77
2023/04/02 10:52:59;;;;;;;;;;;15.50;76.20;;;;;;4988026;28;95512;-77
2023/04/02 10:55:29;;;;;;;;;;;15.60;75.10;;;;;;5002384;28;94453;-78
2023/04/02 10:57:56;;;;;;;;;;;15.60;75.50;;;;;;5006656;28;93879;-77
2023/04/02 11:00:24;;;;;;;;;;;15.70;74.90;;;;;;5008696;28;94236;-78
2023/04/02 11:02:53;;;;;;;;;;;15.80;74.70;;;;;;4997123;28;94887;-76
2023/04/02 11:05:18;;;;;;;;;;;15.90;74.20;;;;;;5003182;28;94526;-80
2023/04/02 11:08:05;;;;;;;;;;;15.90;73.70;;;;;;5005803;28;94338;-77
2023/04/02 11:10:33;;;;;;;;;;;15.80;73.90;;;;;;5011792;28;94503;-75
2023/04/02 11:13:12;;;;;;;;;;;15.70;73.70;;;;;;5006553;28;94613;-75
2023/04/02 11:15:37;;;;;;;;;;;15.80;73.80;;;;;;5013778;28;95678;-76
2023/04/02 11:18:03;;;;;;;;;;;15.90;73.40;;;;;;5009972;28;94168;-76
2023/04/02 11:20:42;;;;;;;;;;;16.00;73.10;;;;;;5006348;28;94799;-79
2023/04/02 11:23:11;;;;;;;;;;;16.00;73.10;;;;;;5001091;28;94684;-78
2023/04/02 11:25:36;;;;;;;;;;;16.00;73.00;;;;;;4981634;28;94014;-78
2023/04/02 11:28:21;;;;;;;;;;;16.10;73.00;;;;;;4995432;28;94600;-78
2023/04/02 11:30:47;;;;;;;;;;;16.10;72.90;;;;;;4998022;28;94712;-78
2023/04/02 11:33:24;;;;;;;;;;;16.10;72.70;;;;;;5002869;28;94851;-77
2023/04/02 11:35:50;;;;;;;;;;;16.10;72.60;;;;;;4979378;28;95816;-76
2023/04/02 11:38:21;;;;;;;;;;;16.20;72.50;;;;;;5002381;28;93987;-77
2023/04/02 11:40:57;;;;;;;;;;;16.20;72.20;;;;;;4998035;28;95847;-79
2023/04/02 11:43:31;;;;;;;;;;;16.00;72.40;;;;;;4996360;28;95030;-78
2023/04/02 11:45:58;;;;;;;;;;;16.10;72.20;;;;;;4998108;28;94780;-81
2023/04/02 11:48:28;;;;;;;;;;;16.10;72.10;;;;;;4993155;28;94794;-78
2023/04/02 11:50:54;;;;;;;;;;;16.20;72.20;;;;;;4998945;28;96270;-79
2023/04/02 11:53:21;;;;;;;;;;;16.20;71.90;;;;;;4987192;28;95270;-76
2023/04/02 11:55:53;;;;;;;;;;;16.30;71.60;;;;;;4999812;28;95982;-79
2023/04/02 11:58:21;;;;;;;;;;;16.30;71.20;;;;;;5001167;28;93507;-81
2023/04/02 12:00:53;;;;;;;;;;;16.40;70.90;;;;;;4986887;28;94742;-78
2023/04/02 12:03:37;;;;;;;;;;;16.40;70.70;;;;;;4984544;28;94528;-78
2023/04/02 12:06:25;;;;;;;;;;;16.40;70.70;;;;;;5000116;28;96134;-79
2023/04/02 12:09:03;;;;;;;;;;;16.40;70.30;;;;;;4997252;28;94668;-78
2023/04/02 12:11:37;;;;;;;;;;;16.30;70.70;;;;;;4991022;28;95321;-77
2023/04/02 12:14:21;;;;;;;;;;;16.30;71.50;;;;;;5007125;28;94761;-78
2023/04/02 12:16:46;;;;;;;;;;;16.40;71.10;;;;;;5011731;28;93775;-75
2023/04/02 12:19:14;;;;;;;;;;;16.40;71.20;;;;;;5014311;28;93897;-75
2023/04/02 12:21:45;;;;;;;;;;;16.50;71.20;;;;;;5016278;28;95578;-77
2023/04/02 12:24:16;;;;;;;;;;;16.50;70.90;;;;;;4999045;28;94372;-81
2023/04/02 12:26:45;;;;;;;;;;;16.50;70.90;;;;;;4977368;28;96209;-80
2023/04/02 12:29:23;;;;;;;;;;;16.40;70.30;;;;;;4993199;28;94976;-74
2023/04/02 12:31:49;;;;;;;;;;;16.40;70.20;;;;;;4974062;28;97272;-78
2023/04/02 12:34:16;;;;;;;;;;;16.30;70.40;;;;;;4987076;28;94447;-79
2023/04/02 12:36:54;;;;;;;;;;;16.30;70.30;;;;;;4996132;28;94524;-77
2023/04/02 12:39:20;;;;;;;;;;;16.20;70.20;;;;;;4995606;28;94256;-78
2023/04/02 12:41:46;;;;;;;;;;;16.30;69.80;;;;;;4991148;28;95189;-79
2023/04/02 12:44:12;;;;;;;;;;;16.30;69.30;;;;;;4991168;28;95108;-76
2023/04/02 12:46:38;;;;;;;;;;;16.20;69.80;;;;;;4967571;28;94958;-78
2023/04/02 12:49:22;;;;;;;;;;;16.10;70.10;;;;;;4984844;28;95135;-77
2023/04/02 12:51:48;;;;;;;;;;;16.10;70.20;;;;;;4991309;28;95721;-78
2023/04/02 12:54:16;;;;;;;;;;;16.00;70.70;;;;;;4975476;28;97648;-77
2023/04/02 12:56:42;;;;;;;;;;;16.00;70.60;;;;;;4985520;28;95021;-76
2023/04/02 12:59:28;;;;;;;;;;;16.00;70.70;;;;;;4967161;28;95764;-72
2023/04/02 13:01:57;;;;;;;;;;;16.00;70.70;;;;;;4995151;28;93860;-75
2023/04/02 13:04:23;;;;;;;;;;;16.10;71.30;;;;;;4996776;28;95695;-76
2023/04/02 13:06:51;;;;;;;;;;;16.20;71.70;;;;;;4977726;28;94601;-77
2023/04/02 13:09:25;;;;;;;;;;;16.20;71.80;;;;;;4983617;28;94073;-76
2023/04/02 13:11:51;;;;;;;;;;;16.30;72.00;;;;;;4998208;28;94967;-77
2023/04/02 13:14:18;;;;;;;;;;;16.30;72.00;;;;;;5005652;28;93509;-75
2023/04/02 13:16:44;;;;;;;;;;;16.40;72.30;;;;;;5011683;28;93905;-77
2023/04/02 13:19:16;;;;;;;;;;;16.50;72.40;;;;;;4972676;28;95164;-79
2023/04/02 13:21:41;;;;;;;;;;;16.50;72.00;;;;;;4985332;28;95633;-77
2023/04/02 13:24:16;;;;;;;;;;;16.50;72.80;;;;;;4991590;28;94901;-74
2023/04/02 13:26:42;;;;;;;;;;;16.60;72.90;;;;;;5000382;28;95432;-75
2023/04/02 13:29:08;;;;;;;;;;;16.60;72.70;;;;;;5000536;28;95092;-75
2023/04/02 13:31:33;;;;;;;;;;;16.70;72.60;;;;;;4985263;28;94618;-77
2023/04/02 13:33:59;;;;;;;;;;;16.70;72.90;;;;;;4987765;28;95827;-78
2023/04/02 13:36:28;;;;;;;;;;;16.70;72.20;;;;;;4996236;28;94104;-76
2023/04/02 13:38:54;;;;;;;;;;;16.70;72.80;;;;;;4983976;28;93216;-75
2023/04/02 13:41:27;;;;;;;;;;;16.80;73.00;;;;;;4986161;28;96103;-75
2023/04/02 13:43:53;;;;;;;;;;;16.80;72.90;;;;;;4997959;28;94351;-75
2023/04/02 13:46:23;;;;;;;;;;;16.90;72.50;;;;;;4991483;28;96650;-78
2023/04/02 13:48:49;;;;;;;;;;;16.90;72.80;;;;;;4986417;28;95224;-76
2023/04/02 13:51:20;;;;;;;;;;;16.90;72.80;;;;;;4983608;28;97085;-79
2023/04/02 13:53:46;;;;;;;;;;;16.80;72.80;;;;;;5005683;28;94185;-75
2023/04/02 13:56:11;;;;;;;;;;;16.90;73.00;;;;;;5003797;28;93714;-78
2023/04/02 13:58:37;;;;;;;;;;;16.90;72.80;;;;;;5004451;28;94254;-76
2023/04/02 14:01:03;;;;;;;;;;;16.90;73.10;;;;;;5002998;28;96864;-77
2023/04/02 14:03:28;;;;;;;;;;;16.90;73.20;;;;;;5003712;28;93456;-77
2023/04/02 14:06:00;;;;;;;;;;;16.90;72.90;;;;;;5003423;28;94516;-77
2023/04/02 14:08:29;;;;;;;;;;;17.00;73.00;;;;;;4994568;28;95418;-78
2023/04/02 14:10:57;;;;;;;;;;;17.00;73.00;;;;;;4990258;28;96409;-78
2023/04/02 14:13:35;;;;;;;;;;;17.00;72.30;;;;;;4993635;28;94985;-77
2023/04/02 14:16:20;;;;;;;;;;;17.00;73.00;;;;;;4995603;28;95708;-75
2023/04/02 14:19:12;;;;;;;;;;;16.90;72.60;;;;;;4981958;28;94999;-74
2023/04/02 14:21:37;;;;;;;;;;;16.90;72.40;;;;;;4969133;28;94517;-76
2023/04/02 14:24:17;;;;;;;;;;;16.90;72.20;;;;;;4994541;28;94768;-76
2023/04/02 14:26:43;;;;;;;;;;;16.90;72.40;;;;;;4980790;28;94088;-75
2023/04/02 14:29:08;;;;;;;;;;;16.90;72.60;;;;;;4974842;28;93523;-74
2023/04/02 14:31:53;;;;;;;;;;;17.00;72.40;;;;;;4985275;28;94460;-76
2023/04/02 14:34:23;;;;;;;;;;;17.00;72.60;;;;;;4979881;28;95076;-76
2023/04/02 14:37:11;;;;;;;;;;;17.00;72.60;;;;;;4991914;28;99204;-78
2023/04/02 14:39:56;;;;;;;;;;;17.10;72.50;;;;;;5000753;28;94040;-76
2023/04/02 14:42:28;;;;;;;;;;;17.10;72.50;;;;;;4986214;28;94512;-77